createdAt,value
2018-06-18T09:13:51.796Z,86.08
2018-06-18T09:14:51.752Z,80.68
2018-06-18T09:15:51.750Z,84.06
2018-06-18T09:16:51.724Z,83.09
2018-06-18T09:17:51.710Z,82.90
2018-06-18T09:18:51.698Z,81.84
2018-06-18T09:19:51.682Z,79.81
2018-06-18T09:20:51.714Z,85.36
2018-06-18T09:21:51.654Z,84.00
2018-06-18T09:22:51.643Z,77.34
2018-06-18T09:23:51.629Z,77.25
2018-06-18T09:24:51.617Z,77.25
2018-06-18T09:25:51.613Z,78.94
2018-06-18T09:26:51.591Z,77.55
2018-06-18T09:27:51.579Z,81.12
2018-06-18T09:28:51.568Z,83.00
2018-06-18T09:29:51.558Z,82.67
2018-06-18T09:30:51.557Z,83.15
2018-06-18T09:31:51.531Z,83.00
2018-06-18T09:32:51.517Z,81.55
2018-06-18T09:33:51.506Z,79.43
2018-06-18T09:34:51.495Z,78.94
2018-06-18T09:35:51.502Z,79.81
2018-06-18T09:36:51.471Z,81.16
2018-06-18T09:37:51.460Z,76.82
2018-06-18T09:38:51.453Z,78.94
2018-06-18T09:39:51.442Z,78.75
2018-06-18T09:40:51.428Z,83.87
2018-06-18T09:41:51.424Z,83.39
2018-06-18T09:42:51.403Z,83.96
2018-06-18T09:43:51.391Z,80.72
2018-06-18T09:44:51.380Z,82.03
2018-06-18T09:45:51.367Z,78.89
2018-06-18T09:46:51.368Z,81.26
2018-06-18T09:47:51.345Z,83.00
2018-06-18T09:48:51.335Z,81.74
2018-06-18T09:49:51.320Z,82.13
2018-06-18T09:50:51.310Z,84.06
2018-06-18T09:51:51.317Z,83.63
2018-06-18T09:52:51.290Z,84.11
2018-06-18T09:53:51.276Z,83.83
2018-06-18T09:54:51.272Z,81.60
2018-06-18T09:55:51.260Z,82.51
2018-06-18T09:56:51.256Z,84.35
2018-06-18T09:57:51.236Z,82.61
2018-06-18T09:58:51.222Z,80.49
2018-06-18T09:59:51.204Z,83.48
2018-06-18T10:00:51.204Z,81.30
2018-06-18T10:01:51.202Z,79.17
2018-06-18T10:02:51.178Z,78.89
2018-06-18T10:03:51.171Z,79.02
2018-06-18T10:04:51.153Z,76.70
2018-06-18T10:05:51.138Z,77.48
2018-06-18T10:06:51.143Z,75.60
2018-06-18T10:07:51.119Z,75.84
2018-06-18T10:08:51.273Z,76.74
2018-06-18T10:09:51.094Z,74.38
2018-06-18T10:10:51.080Z,73.36
2018-06-18T10:11:51.081Z,75.91
2018-06-18T10:12:51.062Z,73.01
2018-06-18T10:13:51.048Z,71.98
2018-06-18T10:14:51.048Z,71.50
2018-06-18T10:15:51.040Z,70.34
2018-06-18T10:16:51.029Z,71.47
2018-06-18T10:17:51.005Z,69.40
2018-06-18T10:18:50.996Z,68.85
2018-06-18T10:19:50.989Z,72.95
2018-06-18T10:20:50.976Z,71.72
2018-06-18T10:21:50.978Z,73.52
2018-06-18T10:22:50.952Z,72.97
2018-06-18T10:23:50.945Z,72.24
2018-06-18T10:24:50.936Z,70.98
2018-06-18T10:25:50.925Z,71.23
2018-06-18T10:26:50.922Z,69.98
2018-06-18T10:27:50.905Z,71.26
2018-06-18T10:28:50.897Z,69.84
2018-06-18T10:29:50.882Z,72.48
2018-06-18T10:30:50.871Z,74.73
2018-06-18T10:31:50.878Z,73.28
2018-06-18T10:32:50.847Z,75.60
2018-06-18T10:33:50.836Z,74.93
2018-06-18T10:34:50.827Z,75.02
2018-06-18T10:35:50.816Z,73.63
2018-06-18T10:36:50.823Z,73.63
2018-06-18T10:37:50.793Z,75.34
2018-06-18T10:38:50.784Z,76.40
2018-06-18T10:39:50.771Z,78.29
2018-06-18T10:40:50.762Z,79.49
2018-06-18T10:41:50.757Z,79.58
2018-06-18T10:42:50.752Z,77.94
2018-06-18T10:43:50.731Z,76.30
2018-06-18T10:44:50.716Z,81.60
2018-06-18T10:45:50.714Z,83.25
2018-06-18T10:46:50.695Z,80.06
2018-06-18T10:47:50.696Z,78.13
2018-06-18T10:48:50.672Z,79.58
2018-06-18T10:49:50.664Z,82.53
2018-06-18T10:50:50.654Z,80.16
2018-06-18T10:51:50.642Z,81.90
2018-06-18T10:52:50.641Z,82.76
2018-06-18T10:53:50.616Z,82.09
2018-06-18T10:54:50.610Z,78.91
2018-06-18T10:55:50.591Z,81.12
2018-06-18T10:56:50.584Z,77.65
2018-06-18T10:57:50.581Z,78.52
2018-06-18T10:58:50.559Z,77.84
2018-06-18T10:59:50.554Z,79.10
2018-06-18T11:00:50.539Z,79.00
2018-06-18T11:01:50.530Z,79.39
2018-06-18T11:02:50.526Z,78.66
2018-06-18T11:03:50.569Z,80.14
2018-06-18T11:04:50.489Z,80.91
2018-06-18T11:05:50.479Z,76.22
2018-06-18T11:06:50.467Z,71.23
2018-06-18T11:07:50.469Z,69.88
2018-06-18T11:08:50.443Z,70.20
2018-06-18T11:09:50.438Z,70.53
2018-06-18T11:10:50.421Z,69.21
2018-06-18T11:11:50.409Z,68.27
2018-06-18T11:12:50.410Z,64.37
2018-06-18T11:13:50.388Z,64.01
2018-06-18T11:14:50.377Z,66.34
2018-06-18T11:15:50.377Z,67.50
2018-06-18T11:16:50.594Z,68.21
2018-06-18T11:17:50.351Z,66.05
2018-06-18T11:18:50.333Z,67.05
2018-06-18T11:19:50.326Z,66.85
2018-06-18T11:20:50.313Z,64.92
2018-06-18T11:21:50.313Z,66.95
2018-06-18T11:22:50.335Z,66.08
2018-06-18T11:23:50.288Z,66.85
2018-06-18T11:24:50.272Z,67.72
2018-06-18T11:25:50.262Z,66.53
2018-06-18T11:26:50.398Z,64.89
2018-06-18T11:27:50.246Z,64.50
2018-06-18T11:28:50.247Z,63.17
2018-06-18T11:29:50.225Z,62.75
2018-06-18T11:30:50.216Z,65.63
2018-06-18T11:31:50.204Z,67.56
2018-06-18T11:32:50.193Z,66.17
2018-06-18T11:33:50.193Z,68.33
2018-06-18T11:34:50.201Z,68.88
2018-06-18T11:35:50.172Z,68.11
2018-06-18T11:36:50.196Z,65.85
2018-06-18T11:37:50.201Z,66.85
2018-06-18T11:38:50.222Z,69.33
2018-06-18T11:39:50.125Z,69.08
2018-06-18T11:40:50.113Z,66.85
2018-06-18T11:41:50.189Z,66.66
2018-06-18T11:42:50.098Z,66.85
2018-06-18T11:43:50.105Z,67.05
2018-06-18T11:44:50.073Z,65.69
2018-06-18T11:45:50.095Z,67.43
2018-06-18T11:46:50.057Z,66.47
2018-06-18T11:47:50.089Z,67.21
2018-06-18T11:48:50.049Z,68.82
2018-06-18T11:49:50.029Z,68.95
2018-06-18T11:50:50.062Z,68.62
2018-06-18T11:51:50.012Z,69.33
2018-06-18T11:52:49.994Z,68.52
2018-06-18T11:53:50.003Z,67.46
2018-06-18T11:54:49.974Z,68.82
2018-06-18T11:55:50.023Z,69.68
2018-06-18T11:56:49.956Z,71.68
2018-06-18T11:57:49.939Z,71.30
2018-06-18T11:58:49.948Z,71.58
2018-06-18T11:59:49.922Z,71.55
2018-06-18T12:00:49.916Z,73.00
2018-06-18T12:01:49.901Z,73.19
2018-06-18T12:02:49.886Z,73.25
2018-06-18T12:03:49.941Z,75.18
2018-06-18T12:04:49.867Z,76.53
2018-06-18T12:05:49.861Z,76.24
2018-06-18T12:06:49.848Z,78.46
2018-06-18T12:07:49.834Z,76.09
2018-06-18T12:08:49.829Z,75.60
2018-06-18T12:09:49.895Z,78.02
2018-06-18T12:10:49.801Z,76.09
2018-06-18T12:11:49.790Z,77.53
2018-06-18T12:12:49.779Z,76.92
2018-06-18T12:13:49.771Z,78.46
2018-06-18T12:14:49.765Z,78.27
2018-06-18T12:15:49.744Z,80.58
2018-06-18T12:16:49.736Z,77.26
2018-06-18T12:17:49.723Z,78.52
2018-06-18T12:18:49.710Z,79.10
2018-06-18T12:19:49.711Z,79.68
2018-06-18T12:20:49.686Z,80.54
2018-06-18T12:21:49.676Z,79.24
2018-06-18T12:22:49.662Z,77.94
2018-06-18T12:23:49.653Z,77.75
2018-06-18T12:24:49.653Z,79.52
2018-06-18T12:25:49.628Z,81.35
2018-06-18T12:26:49.618Z,79.66
2018-06-18T12:27:49.606Z,78.31
2018-06-18T12:28:49.592Z,77.73
2018-06-18T12:29:49.590Z,77.44
2018-06-18T12:30:49.572Z,75.22
2018-06-18T12:31:49.558Z,75.70
2018-06-18T12:32:49.545Z,76.67
2018-06-18T12:33:49.536Z,76.67
2018-06-18T12:34:49.535Z,76.53
2018-06-18T12:35:49.518Z,76.82
2018-06-18T12:36:49.498Z,78.08
2018-06-18T12:37:49.486Z,81.65
2018-06-18T12:38:49.479Z,79.72
2018-06-18T12:39:49.476Z,79.72
2018-06-18T12:40:49.451Z,80.10
2018-06-18T12:41:49.439Z,79.52
2018-06-18T12:42:49.427Z,77.88
2018-06-18T12:43:49.416Z,80.78
2018-06-18T12:44:49.424Z,82.71
2018-06-18T12:45:49.389Z,80.49
2018-06-18T12:46:49.437Z,80.30
2018-06-18T12:47:49.373Z,77.83
2018-06-18T12:48:49.354Z,78.69
2018-06-18T12:49:49.360Z,78.99
2018-06-18T12:50:49.331Z,80.18
2018-06-18T12:51:49.323Z,77.38
2018-06-18T12:52:49.306Z,75.26
2018-06-18T12:53:49.302Z,73.28
2018-06-18T12:54:49.293Z,75.22
2018-06-18T12:55:49.270Z,76.51
2018-06-18T12:56:49.262Z,75.74
2018-06-18T12:57:49.248Z,72.26
2018-06-18T12:58:49.237Z,73.03
2018-06-18T12:59:49.234Z,72.74
2018-06-18T13:00:49.214Z,72.71
2018-06-18T13:01:49.204Z,73.63
2018-06-18T13:02:49.190Z,75.37
2018-06-18T13:03:49.175Z,77.50
2018-06-18T13:04:49.180Z,77.36
2018-06-18T13:05:49.156Z,78.94
2018-06-18T13:06:49.152Z,79.43
2018-06-18T13:07:49.132Z,75.57
2018-06-18T13:08:49.119Z,74.64
2018-06-18T13:09:49.107Z,76.12
2018-06-18T13:10:49.107Z,77.51
2018-06-18T13:11:49.085Z,78.71
2018-06-18T13:12:49.079Z,73.20
2018-06-18T13:13:49.063Z,72.20
2018-06-18T13:14:49.050Z,72.78
2018-06-18T13:15:49.049Z,73.07
2018-06-18T13:16:49.026Z,73.65
2018-06-18T13:17:49.023Z,72.97
2018-06-18T13:18:49.003Z,75.20
2018-06-18T13:19:48.993Z,77.38
2018-06-18T13:20:48.989Z,78.83
2018-06-18T13:21:48.970Z,77.63
2018-06-18T13:22:48.958Z,81.11
2018-06-18T13:23:48.956Z,81.74
2018-06-18T13:24:48.940Z,81.55
2018-06-18T13:25:48.933Z,82.23
2018-06-18T13:26:48.912Z,81.35
2018-06-18T13:27:48.937Z,82.67
2018-06-18T13:28:48.889Z,82.38
2018-06-18T13:29:48.877Z,84.21
2018-06-18T13:30:48.875Z,83.92
2018-06-18T13:31:48.866Z,84.89
2018-06-18T13:32:48.844Z,86.10
2018-06-18T13:33:48.837Z,86.77
2018-06-18T13:34:48.817Z,86.48
2018-06-18T13:35:48.819Z,87.64
2018-06-18T13:36:48.796Z,87.64
2018-06-18T13:37:48.797Z,87.45
2018-06-18T13:38:48.767Z,88.26
2018-06-18T13:39:48.764Z,87.26
2018-06-18T13:40:48.759Z,86.96
2018-06-18T13:41:48.734Z,87.26
2018-06-18T13:42:48.725Z,89.47
2018-06-18T13:43:48.711Z,90.72
2018-06-18T13:44:48.702Z,92.75
2018-06-18T13:45:48.702Z,90.92
2018-06-18T13:46:48.673Z,90.97
2018-06-18T13:47:48.662Z,91.83
2018-06-18T13:48:48.652Z,92.71
2018-06-18T13:49:48.643Z,93.19
2018-06-18T13:50:48.628Z,92.03
2018-06-18T13:51:48.619Z,92.13
2018-06-18T13:52:48.759Z,93.19
2018-06-18T13:53:48.604Z,92.99
2018-06-18T13:54:48.575Z,92.80
2018-06-18T13:55:48.565Z,92.99
2018-06-18T13:56:48.567Z,93.66
2018-06-18T13:57:48.541Z,94.58
2018-06-18T13:58:48.527Z,94.24
2018-06-18T13:59:48.521Z,93.09
2018-06-18T14:00:48.506Z,92.99
2018-06-18T14:01:48.490Z,92.61
2018-06-18T14:02:48.489Z,92.56
2018-06-18T14:03:48.464Z,94.00
2018-06-18T14:04:48.452Z,94.34
2018-06-18T14:05:48.471Z,95.02
2018-06-18T14:06:48.427Z,95.31
2018-06-18T14:07:48.426Z,95.06
2018-06-18T14:08:48.401Z,94.10
2018-06-18T14:09:48.392Z,94.10
2018-06-18T14:10:48.379Z,93.18
2018-06-18T14:11:48.369Z,91.54
2018-06-18T14:12:48.375Z,91.88
2018-06-18T14:13:48.411Z,89.65
2018-06-18T14:14:48.334Z,87.71
2018-06-18T14:15:48.316Z,83.85
2018-06-18T14:16:48.308Z,84.32
2018-06-18T14:17:48.304Z,81.46
2018-06-18T14:18:48.280Z,77.78
2018-06-18T14:19:48.351Z,76.02
2018-06-18T14:20:48.261Z,74.53
2018-06-18T14:21:48.243Z,77.69
2018-06-18T14:22:48.231Z,83.11
2018-06-18T14:23:48.241Z,81.42
2018-06-18T14:24:48.211Z,81.04
2018-06-18T14:25:48.200Z,83.61
2018-06-18T14:26:48.189Z,84.52
2018-06-18T14:27:48.178Z,84.71
2018-06-18T14:28:48.176Z,82.39
2018-06-18T14:29:48.157Z,84.32
2018-06-18T14:30:48.146Z,86.55
2018-06-18T14:31:48.135Z,86.25
2018-06-18T14:32:48.178Z,86.60
2018-06-18T14:33:48.128Z,86.69
2018-06-18T14:34:48.102Z,88.24
2018-06-18T14:35:48.213Z,87.85
2018-06-18T14:36:48.081Z,87.23
2018-06-18T14:37:48.073Z,88.87
2018-06-18T14:38:48.070Z,88.39
2018-06-18T14:39:48.049Z,90.37
2018-06-18T14:40:48.036Z,91.73
2018-06-18T14:41:48.030Z,92.02
2018-06-18T14:42:48.019Z,92.02
2018-06-18T14:43:48.016Z,91.63
2018-06-18T14:44:47.999Z,93.37
2018-06-18T14:45:48.031Z,93.90
2018-06-18T14:46:47.969Z,95.45
2018-06-18T14:47:47.960Z,94.87
2018-06-18T14:48:48.019Z,95.35
2018-06-18T14:49:47.935Z,96.89
2018-06-18T14:50:47.928Z,97.28
2018-06-18T14:51:47.915Z,97.09
2018-06-18T14:52:47.902Z,97.57
2018-06-18T14:53:47.889Z,97.47
2018-06-18T14:54:47.889Z,98.58
2018-06-18T14:55:47.867Z,99.07
2018-06-18T14:56:47.879Z,98.39
2018-06-18T14:57:47.846Z,99.74
2018-06-18T14:58:47.832Z,99.65
2018-06-18T14:59:47.890Z,98.39
2018-06-18T15:00:47.809Z,98.39
2018-06-18T15:01:47.797Z,98.39
2018-06-18T15:02:47.861Z,99.02
2018-06-18T15:03:47.862Z,99.02
2018-06-18T15:04:47.775Z,98.78
2018-06-18T15:05:47.746Z,99.07
2018-06-18T15:06:47.740Z,99.55
2018-06-18T15:07:47.727Z,99.99
2018-06-18T15:08:47.712Z,99.99
2018-06-18T15:09:47.710Z,99.99
2018-06-18T15:10:47.697Z,99.99
2018-06-18T15:11:47.679Z,99.99
2018-06-18T15:12:47.715Z,99.99
2018-06-18T15:13:47.690Z,99.99
2018-06-18T15:14:47.648Z,99.99
2018-06-18T15:15:47.704Z,99.99
2018-06-18T15:16:47.618Z,99.99
2018-06-18T15:17:47.605Z,99.99
2018-06-18T15:18:47.593Z,99.99
2018-06-18T15:19:47.594Z,99.99
2018-06-18T15:20:47.567Z,99.99
2018-06-18T15:21:47.557Z,99.99
2018-06-18T15:22:47.552Z,99.99
2018-06-18T15:23:47.544Z,99.99
2018-06-18T15:24:47.532Z,99.99
2018-06-18T15:25:47.509Z,99.99
2018-06-18T15:26:47.591Z,99.99
2018-06-18T15:27:47.493Z,99.99
2018-06-18T15:28:47.473Z,99.99
2018-06-18T15:29:47.473Z,99.99
2018-06-18T15:30:47.448Z,99.79
2018-06-18T15:31:47.441Z,99.60
2018-06-18T15:32:47.472Z,99.99
2018-06-18T15:33:47.414Z,99.69
2018-06-18T15:34:47.416Z,99.60
2018-06-18T15:35:47.395Z,99.02
2018-06-18T15:36:47.393Z,98.83
2018-06-18T15:37:47.370Z,98.00
2018-06-18T15:38:47.360Z,97.62
2018-06-18T15:39:47.347Z,97.52
2018-06-18T15:40:47.339Z,97.67
2018-06-18T15:41:47.321Z,97.62
2018-06-18T15:42:47.310Z,97.33
2018-06-18T15:43:47.378Z,92.88
2018-06-18T15:44:47.287Z,95.01
2018-06-18T15:45:47.286Z,93.75
2018-06-18T15:46:47.270Z,93.60
2018-06-18T15:47:47.254Z,94.96
2018-06-18T15:48:47.242Z,95.44
2018-06-18T15:49:47.231Z,94.33
2018-06-18T15:50:47.231Z,95.68
2018-06-18T15:51:47.212Z,96.12
2018-06-18T15:52:47.198Z,93.80
2018-06-18T15:53:47.188Z,91.28
2018-06-18T15:54:47.181Z,93.36
2018-06-18T15:55:47.177Z,90.84
2018-06-18T15:56:47.176Z,91.08
2018-06-18T15:57:47.148Z,88.17
2018-06-18T15:58:47.134Z,82.94
2018-06-18T15:59:47.129Z,73.11
2018-06-18T16:00:47.123Z,70.55
2018-06-18T16:01:47.126Z,70.84
2018-06-18T16:02:47.093Z,70.04
2018-06-18T16:03:47.085Z,66.44
2018-06-18T16:04:47.075Z,67.63
2018-06-18T16:05:47.079Z,67.70
2018-06-18T16:06:47.056Z,63.12
2018-06-18T16:07:47.048Z,62.35
2018-06-18T16:08:47.042Z,62.54
2018-06-18T16:09:47.035Z,62.38
2018-06-18T16:10:47.042Z,58.17
2018-06-18T16:11:47.015Z,59.87
2018-06-18T16:12:47.009Z,60.00
2018-06-18T16:13:46.999Z,62.80
2018-06-18T16:14:46.993Z,63.09
2018-06-18T16:15:47.001Z,65.04
2018-06-18T16:16:46.978Z,68.08
2018-06-18T16:17:47.036Z,70.03
2018-06-18T16:18:46.962Z,69.32
2018-06-18T16:19:46.966Z,67.70
2018-06-18T16:20:46.963Z,64.10
2018-06-18T16:21:46.943Z,60.66
2018-06-18T16:22:46.937Z,61.25
2018-06-18T16:23:46.938Z,63.68
2018-06-18T16:24:46.922Z,60.72
2018-06-18T16:25:46.933Z,58.77
2018-06-18T16:26:46.910Z,60.28
2018-06-18T16:27:46.901Z,63.17
2018-06-18T16:28:46.897Z,64.91
2018-06-18T16:29:46.888Z,63.20
2018-06-18T16:30:46.896Z,63.36
2018-06-18T16:31:46.895Z,63.62
2018-06-18T16:32:46.874Z,66.47
2018-06-18T16:33:46.923Z,66.72
2018-06-18T16:34:46.858Z,67.96
2018-06-18T16:35:46.854Z,65.92
2018-06-18T16:36:46.881Z,65.37
2018-06-18T16:37:46.851Z,67.11
2018-06-18T16:38:46.833Z,69.93
2018-06-18T16:39:46.856Z,69.12
2018-06-18T16:40:46.844Z,70.31
2018-06-18T16:41:46.834Z,68.47
2018-06-18T16:42:46.806Z,69.60
2018-06-18T16:43:46.796Z,70.86
2018-06-18T16:44:46.788Z,71.70
2018-06-18T16:45:46.782Z,71.76
2018-06-18T16:46:46.773Z,73.60
2018-06-18T16:47:46.785Z,73.05
2018-06-18T16:48:46.759Z,72.31
2018-06-18T16:49:46.750Z,68.57
2018-06-18T16:50:46.743Z,69.12
2018-06-18T16:51:46.748Z,70.15
2018-06-18T16:52:46.726Z,70.98
2018-06-18T16:53:46.719Z,73.15
2018-06-18T16:54:46.720Z,72.28
2018-06-18T16:55:46.704Z,70.57
2018-06-18T16:56:46.692Z,70.09
2018-06-18T16:57:46.698Z,71.99
2018-06-18T16:58:46.679Z,72.15
2018-06-18T16:59:46.672Z,73.69
2018-06-18T17:00:46.668Z,73.05
2018-06-18T17:01:46.649Z,73.21
2018-06-18T17:02:46.681Z,73.02
2018-06-18T17:03:46.634Z,76.41
2018-06-18T17:04:46.630Z,75.73
2018-06-18T17:05:46.621Z,75.28
2018-06-18T17:06:46.609Z,70.12
2018-06-18T17:07:46.615Z,69.18
2018-06-18T17:08:46.595Z,70.37
2018-06-18T17:09:46.581Z,71.80
2018-06-18T17:10:46.579Z,73.60
2018-06-18T17:11:46.575Z,76.70
2018-06-18T17:12:46.571Z,69.86
2018-06-18T17:13:46.554Z,68.57
2018-06-18T17:14:46.545Z,66.14
2018-06-18T17:15:46.535Z,62.87
2018-06-18T17:16:46.526Z,60.39
2018-06-18T17:17:46.535Z,56.04
2018-06-18T17:18:46.511Z,57.81
2018-06-18T17:19:46.512Z,58.71
2018-06-18T17:20:46.503Z,57.60
2018-06-18T17:21:46.493Z,56.29
2018-06-18T17:22:46.497Z,54.36
2018-06-18T17:23:46.476Z,55.37
2018-06-18T17:24:46.476Z,59.13
2018-06-18T17:25:46.466Z,57.85
2018-06-18T17:26:46.454Z,55.02
2018-06-18T17:27:46.477Z,53.34
2018-06-18T17:28:46.532Z,52.34
2018-06-18T17:29:46.446Z,50.44
2018-06-18T17:30:46.440Z,52.27
2018-06-18T17:31:46.478Z,55.22
2018-06-18T17:32:46.453Z,57.54
2018-06-18T17:33:46.447Z,60.18
2018-06-18T17:34:46.422Z,65.79
2018-06-18T17:35:46.418Z,67.92
2018-06-18T17:36:46.413Z,64.53
2018-06-18T17:37:46.436Z,63.88
2018-06-18T17:38:46.403Z,66.02
2018-06-18T17:39:46.398Z,70.31
2018-06-18T17:40:46.391Z,72.89
2018-06-18T17:41:46.399Z,75.07
2018-06-18T17:42:46.392Z,74.94
2018-06-18T17:43:46.375Z,77.55
2018-06-18T17:44:46.373Z,78.77
2018-06-18T17:45:46.359Z,80.12
2018-06-18T17:46:46.352Z,79.74
2018-06-18T17:47:46.363Z,77.30
2018-06-18T17:48:46.341Z,77.69
2018-06-18T17:49:46.380Z,78.75
2018-06-18T17:50:46.325Z,78.33
2018-06-18T17:51:46.315Z,79.10
2018-06-18T17:52:46.327Z,79.83
2018-06-18T17:53:46.340Z,80.80
2018-06-18T17:54:46.295Z,81.48
2018-06-18T17:55:46.284Z,81.29
2018-06-18T17:56:46.273Z,80.99
2018-06-18T17:57:46.277Z,81.48
2018-06-18T17:58:46.255Z,82.21
2018-06-18T17:59:46.247Z,83.47
2018-06-18T18:00:46.238Z,84.63
2018-06-18T18:01:46.230Z,84.91
2018-06-18T18:02:46.253Z,84.63
2018-06-18T18:03:46.210Z,84.67
2018-06-18T18:04:46.200Z,82.93
2018-06-18T18:05:46.201Z,82.98
2018-06-18T18:06:46.180Z,83.75
2018-06-18T18:07:46.196Z,85.59
2018-06-18T18:08:46.164Z,84.63
2018-06-18T18:09:46.152Z,84.63
2018-06-18T18:10:46.145Z,84.67
2018-06-18T18:11:46.135Z,82.83
2018-06-18T18:12:46.194Z,82.83
2018-06-18T18:13:46.159Z,82.69
2018-06-18T18:14:46.104Z,83.75
2018-06-18T18:15:46.092Z,84.63
2018-06-18T18:16:46.083Z,85.49
2018-06-18T18:17:46.087Z,85.30
2018-06-18T18:18:46.066Z,86.56
2018-06-18T18:19:46.057Z,88.59
2018-06-18T18:20:46.038Z,88.45
2018-06-18T18:21:46.031Z,88.64
2018-06-18T18:22:46.034Z,89.61
2018-06-18T18:23:46.009Z,90.33
2018-06-18T18:24:45.993Z,91.59
2018-06-18T18:25:45.986Z,90.62
2018-06-18T18:26:45.977Z,91.11
2018-06-18T18:27:46.106Z,91.97
2018-06-18T18:28:45.976Z,92.55
2018-06-18T18:29:45.967Z,92.55
2018-06-18T18:30:45.937Z,92.46
2018-06-18T18:31:45.926Z,93.42
2018-06-18T18:32:45.924Z,93.42
2018-06-18T18:33:45.914Z,92.94
2018-06-18T18:34:45.899Z,93.23
2018-06-18T18:35:45.876Z,94.38
2018-06-18T18:36:45.863Z,94.48
2018-06-18T18:37:45.864Z,93.52
2018-06-18T18:38:45.840Z,94.77
2018-06-18T18:39:45.829Z,94.38
2018-06-18T18:40:45.819Z,94.00
2018-06-18T18:41:45.811Z,94.77
2018-06-18T18:42:45.806Z,95.25
2018-06-18T18:43:45.786Z,94.77
2018-06-18T18:44:45.772Z,93.95
2018-06-18T18:45:45.764Z,93.32
2018-06-18T18:46:45.752Z,93.08
2018-06-18T18:47:45.750Z,94.15
2018-06-18T18:48:45.728Z,94.34
2018-06-18T18:49:45.716Z,95.69
2018-06-18T18:50:45.700Z,95.40
2018-06-18T18:51:45.697Z,95.01
2018-06-18T18:52:45.695Z,95.88
2018-06-18T18:53:45.675Z,95.88
2018-06-18T18:54:45.652Z,96.08
2018-06-18T18:55:45.637Z,95.79
2018-06-18T18:56:45.633Z,95.98
2018-06-18T18:57:45.632Z,96.17
2018-06-18T18:58:45.610Z,96.36
2018-06-18T18:59:45.591Z,96.94
2018-06-18T19:00:45.580Z,97.04
2018-06-18T19:01:45.568Z,97.33
2018-06-18T19:02:45.557Z,97.24
2018-06-18T19:03:45.566Z,97.24
2018-06-18T19:04:45.536Z,97.52
2018-06-18T19:05:45.519Z,97.14
2018-06-18T19:06:45.504Z,97.52
2018-06-18T19:07:45.497Z,97.47
2018-06-18T19:08:45.482Z,97.62
2018-06-18T19:09:45.538Z,97.33
2018-06-18T19:10:45.458Z,96.75
2018-06-18T19:11:45.458Z,97.42
2018-06-18T19:12:45.432Z,96.75
2018-06-18T19:13:45.421Z,97.72
2018-06-18T19:14:45.422Z,98.20
2018-06-18T19:15:45.398Z,97.96
2018-06-18T19:16:45.394Z,97.57
2018-06-18T19:17:45.383Z,97.77
2018-06-18T19:18:45.364Z,97.28
2018-06-18T19:19:45.360Z,97.86
2018-06-18T19:20:45.335Z,97.67
2018-06-18T19:21:45.368Z,98.54
2018-06-18T19:22:45.327Z,99.02
2018-06-18T19:23:45.303Z,99.55
2018-06-18T19:24:45.294Z,99.64
2018-06-18T19:25:45.283Z,99.99
2018-06-18T19:26:45.258Z,99.99
2018-06-18T19:27:45.256Z,99.99
2018-06-18T19:28:45.235Z,99.99
2018-06-18T19:29:45.249Z,99.99
2018-06-18T19:30:45.225Z,99.99
2018-06-18T19:31:45.200Z,99.99
2018-06-18T19:32:45.191Z,99.99
2018-06-18T19:33:45.180Z,99.99
2018-06-18T19:34:45.176Z,99.99
2018-06-18T19:35:45.147Z,99.99
2018-06-18T19:36:45.248Z,99.99
2018-06-18T19:37:45.122Z,99.99
2018-06-18T19:38:45.109Z,99.99
2018-06-18T19:39:45.113Z,99.93
2018-06-18T19:40:45.084Z,99.99
2018-06-18T19:41:45.068Z,99.99
2018-06-18T19:42:45.062Z,99.99
2018-06-18T19:43:45.046Z,99.99
2018-06-18T19:44:45.046Z,99.99
2018-06-18T19:45:45.023Z,99.99
2018-06-18T19:46:45.004Z,99.99
2018-06-18T19:47:44.993Z,99.99
2018-06-18T19:48:44.980Z,99.99
2018-06-18T19:49:44.986Z,99.99
2018-06-18T19:50:45.007Z,99.99
2018-06-18T19:51:44.943Z,99.99
2018-06-18T19:52:44.931Z,99.99
2018-06-18T19:53:44.914Z,99.99
2018-06-18T19:54:44.906Z,99.99
2018-06-18T19:55:44.903Z,99.99
2018-06-18T19:56:44.881Z,99.99
2018-06-18T19:57:44.866Z,99.99
2018-06-18T19:58:44.851Z,99.99
2018-06-18T19:59:44.840Z,99.99
2018-06-18T20:00:44.836Z,99.99
2018-06-18T20:01:44.883Z,99.99
2018-06-18T20:02:44.802Z,99.99
2018-06-18T20:03:44.787Z,99.99
2018-06-18T20:04:44.784Z,99.99
2018-06-18T20:05:44.785Z,99.99
2018-06-18T20:06:44.748Z,99.99
2018-06-18T20:07:44.742Z,99.99
2018-06-18T20:08:44.730Z,99.99
2018-06-18T20:09:44.706Z,99.99
2018-06-18T20:10:44.704Z,99.99
2018-06-18T20:11:44.684Z,99.99
2018-06-18T20:12:44.672Z,99.99
2018-06-18T20:13:44.654Z,99.99
2018-06-18T20:14:44.641Z,99.99
2018-06-18T20:15:44.637Z,99.99
2018-06-18T20:16:44.623Z,99.99
2018-06-18T20:17:44.615Z,99.99
2018-06-18T20:18:44.588Z,99.99
2018-06-18T20:19:44.578Z,99.99
2018-06-18T20:20:44.570Z,99.99
2018-06-18T20:21:44.551Z,99.99
2018-06-18T20:22:44.533Z,99.99
2018-06-18T20:23:44.521Z,99.99
2018-06-18T20:24:44.511Z,99.99
2018-06-18T20:25:44.580Z,99.99
2018-06-18T20:26:44.481Z,99.99
2018-06-18T20:27:44.493Z,99.99
2018-06-18T20:28:44.451Z,99.99
2018-06-18T20:29:44.448Z,99.99
2018-06-18T20:30:44.439Z,99.99
2018-06-18T20:31:44.412Z,99.99
2018-06-18T20:32:44.404Z,99.99
2018-06-18T20:33:44.385Z,99.99
2018-06-18T20:34:44.374Z,99.99
2018-06-18T20:35:44.372Z,99.99
2018-06-18T20:36:44.348Z,99.99
2018-06-18T20:37:44.362Z,99.99
2018-06-18T20:38:44.318Z,99.99
2018-06-18T20:39:44.305Z,99.99
2018-06-18T20:40:44.312Z,99.99
2018-06-18T20:41:44.283Z,99.99
2018-06-18T20:42:44.266Z,99.99
2018-06-18T20:43:44.254Z,99.99
2018-06-18T20:44:44.237Z,99.99
2018-06-18T20:45:44.234Z,99.99
2018-06-18T20:46:44.211Z,99.99
2018-06-18T20:47:44.197Z,99.99
2018-06-18T20:48:44.181Z,99.99
2018-06-18T20:49:44.179Z,99.99
2018-06-18T20:50:44.232Z,99.99
2018-06-18T20:51:44.142Z,99.99
2018-06-18T20:52:44.128Z,99.99
2018-06-18T20:53:44.119Z,99.99
2018-06-18T20:54:44.102Z,99.99
2018-06-18T20:55:44.655Z,99.99
2018-06-18T20:56:44.075Z,99.99
2018-06-18T20:57:44.069Z,99.99
2018-06-18T20:58:44.049Z,99.99
2018-06-18T20:59:44.034Z,99.99
2018-06-18T21:00:44.034Z,99.99
2018-06-18T21:01:44.012Z,99.99
2018-06-18T21:02:44.069Z,99.99
2018-06-18T21:03:43.992Z,99.99
2018-06-18T21:04:43.965Z,99.99
2018-06-18T21:05:43.965Z,99.99
2018-06-18T21:06:43.961Z,99.99
2018-06-18T21:07:43.979Z,99.99
2018-06-18T21:08:43.914Z,99.99
2018-06-18T21:09:43.898Z,99.99
2018-06-18T21:10:43.901Z,99.99
2018-06-18T21:11:43.869Z,99.99
2018-06-18T21:12:43.855Z,99.99
2018-06-18T21:13:43.845Z,99.99
2018-06-18T21:14:43.830Z,99.99
2018-06-18T21:15:43.826Z,99.99
2018-06-18T21:16:43.802Z,99.99
2018-06-18T21:17:43.787Z,99.99
2018-06-18T21:18:43.775Z,99.99
2018-06-18T21:19:43.760Z,99.99
2018-06-18T21:20:43.759Z,99.99
2018-06-18T21:21:43.734Z,99.99
2018-06-18T21:22:43.723Z,99.99
2018-06-18T21:23:43.707Z,99.99
2018-06-18T21:24:43.696Z,99.99
2018-06-18T21:25:43.679Z,99.99
2018-06-18T21:26:43.680Z,99.99
2018-06-18T21:27:43.654Z,99.99
2018-06-18T21:28:43.641Z,99.99
2018-06-18T21:29:43.625Z,99.99
2018-06-18T21:30:43.610Z,99.99
2018-06-18T21:31:43.607Z,99.99
2018-06-18T21:32:43.584Z,99.99
2018-06-18T21:33:43.570Z,99.99
2018-06-18T21:34:43.559Z,99.99
2018-06-18T21:35:43.545Z,99.99
2018-06-18T21:36:43.539Z,99.99
2018-06-18T21:37:43.514Z,99.99
2018-06-18T21:38:43.502Z,99.99
2018-06-18T21:39:43.492Z,99.99
2018-06-18T21:40:43.472Z,99.99
2018-06-18T21:41:43.469Z,99.99
2018-06-18T21:42:43.445Z,99.99
2018-06-18T21:43:43.428Z,99.99
2018-06-18T21:44:43.417Z,99.99
2018-06-18T21:45:43.404Z,99.99
2018-06-18T21:46:43.404Z,99.99
2018-06-18T21:47:43.373Z,99.99
2018-06-18T21:48:43.365Z,99.99
2018-06-18T21:49:43.348Z,99.99
2018-06-18T21:50:43.334Z,99.99
2018-06-18T21:51:43.330Z,99.99
2018-06-18T21:52:43.305Z,99.99
2018-06-18T21:53:43.295Z,99.99
2018-06-18T21:54:43.286Z,99.99
2018-06-18T21:55:43.263Z,99.99
2018-06-18T21:56:43.270Z,99.99
2018-06-18T21:57:43.241Z,99.99
2018-06-18T21:58:43.229Z,99.99
2018-06-18T21:59:43.209Z,99.99
2018-06-18T22:00:43.233Z,99.99
2018-06-18T22:01:43.197Z,99.99
2018-06-18T22:02:43.169Z,99.99
2018-06-18T22:03:43.154Z,99.99
2018-06-18T22:04:43.140Z,99.99
2018-06-18T22:05:43.127Z,99.99